createdAt,value
2018-07-17T00:05:02.102Z,9.70
2018-07-17T00:10:04.493Z,13.47
2018-07-17T00:15:06.705Z,12.13
2018-07-17T00:20:08.848Z,10.33
2018-07-17T00:25:11.015Z,9.57
2018-07-17T00:30:13.174Z,12.20
2018-07-17T00:35:15.353Z,11.50
2018-07-17T00:40:17.484Z,9.47
2018-07-17T00:45:19.646Z,9.10
2018-07-17T00:50:21.973Z,14.77
2018-07-17T00:55:24.103Z,9.47
2018-07-17T01:00:32.058Z,10.57
2018-07-17T01:05:39.952Z,10.30
2018-07-17T01:10:47.819Z,10.97
2018-07-17T01:15:50.006Z,10.63
2018-07-17T01:20:52.187Z,8.87
2018-07-17T01:25:54.372Z,9.00
2018-07-17T01:30:56.495Z,9.60
2018-07-17T01:35:58.658Z,11.70
2018-07-17T01:41:00.820Z,8.40
2018-07-17T01:46:02.955Z,8.57
2018-07-17T01:51:05.105Z,9.47
2018-07-17T01:56:07.247Z,8.60
2018-07-17T02:01:09.391Z,9.10
2018-07-17T02:06:11.564Z,8.63
2018-07-17T02:11:13.716Z,9.50
2018-07-17T02:16:15.863Z,8.80
2018-07-17T02:21:17.983Z,7.93
2018-07-17T02:26:20.117Z,8.30
2018-07-17T02:31:22.235Z,8.03
2018-07-17T02:36:24.369Z,8.67
2018-07-17T02:41:26.498Z,10.63
2018-07-17T02:46:28.648Z,9.50
2018-07-17T02:51:30.773Z,11.13
2018-07-17T02:56:32.919Z,8.73
2018-07-17T03:01:35.054Z,8.30
2018-07-17T03:06:37.180Z,8.50
2018-07-17T03:11:39.326Z,9.27
2018-07-17T03:16:41.483Z,11.47
2018-07-17T03:21:43.638Z,10.73
2018-07-17T03:26:45.732Z,9.30
2018-07-17T03:31:47.862Z,9.27
2018-07-17T03:36:50.003Z,9.40
2018-07-17T03:41:52.166Z,9.30
2018-07-17T03:46:54.262Z,8.60
2018-07-17T03:51:56.463Z,12.10
2018-07-17T03:56:58.599Z,9.30
2018-07-17T04:02:00.700Z,9.50
2018-07-17T04:07:02.878Z,9.70
2018-07-17T04:12:05.187Z,10.90
2018-07-17T04:17:07.365Z,10.60
2018-07-17T04:22:09.533Z,9.33
2018-07-17T04:27:11.745Z,11.10
2018-07-17T04:32:13.858Z,11.70
2018-07-17T04:37:16.087Z,9.90
2018-07-17T04:42:18.231Z,13.37
2018-07-17T04:47:20.376Z,10.20
2018-07-17T04:52:22.539Z,12.67
2018-07-17T04:57:24.692Z,15.43
2018-07-17T05:02:26.821Z,19.33
2018-07-17T05:07:28.947Z,14.97
2018-07-17T05:12:31.186Z,14.27
2018-07-17T05:17:33.330Z,13.37
2018-07-17T05:22:35.523Z,11.33
2018-07-17T05:27:37.680Z,10.60
2018-07-17T05:32:39.810Z,15.13
2018-07-17T05:37:42.395Z,10.57
2018-07-17T05:42:44.631Z,8.93
2018-07-17T05:47:46.818Z,8.40
2018-07-17T05:52:48.977Z,8.30
2018-07-17T05:57:51.118Z,7.70
2018-07-17T06:02:53.297Z,7.10
2018-07-17T06:07:55.425Z,9.30
2018-07-17T06:12:58.075Z,7.50
2018-07-17T06:18:00.232Z,7.00
2018-07-17T06:23:02.394Z,5.00
2018-07-17T06:28:04.556Z,5.87
2018-07-17T06:33:06.703Z,9.60
2018-07-17T06:38:08.888Z,5.27
2018-07-17T06:43:11.031Z,4.37
2018-07-17T06:48:13.167Z,6.97
2018-07-17T06:53:15.365Z,20.87
2018-07-17T06:58:17.528Z,8.27
2018-07-17T07:03:19.658Z,4.27
2018-07-17T07:08:21.788Z,13.63
2018-07-17T07:13:23.963Z,5.50
2018-07-17T07:18:26.214Z,5.57
2018-07-17T07:23:28.387Z,9.17
2018-07-17T07:28:30.564Z,3.67
2018-07-17T07:33:32.776Z,6.37
2018-07-17T07:38:34.975Z,4.17
2018-07-17T07:43:37.136Z,15.80
2018-07-17T07:48:39.299Z,8.57
2018-07-17T07:53:41.523Z,4.17
2018-07-17T07:58:44.498Z,4.20
2018-07-17T08:03:46.641Z,3.97
2018-07-17T08:08:48.799Z,4.60
2018-07-17T08:13:50.969Z,4.63
2018-07-17T08:18:53.091Z,4.20
2018-07-17T08:23:55.259Z,5.10
2018-07-17T08:28:57.371Z,4.57
2018-07-17T08:33:59.522Z,5.00
2018-07-17T08:39:01.667Z,6.73
2018-07-17T08:44:03.878Z,4.53
2018-07-17T08:49:06.144Z,4.70
2018-07-17T08:54:08.368Z,5.20
2018-07-17T08:59:10.612Z,4.47
2018-07-17T09:04:12.772Z,6.83
2018-07-17T09:09:14.943Z,6.33
2018-07-17T09:14:17.095Z,7.10
2018-07-17T09:19:19.238Z,5.40
2018-07-17T09:24:21.416Z,3.73
2018-07-17T09:29:23.815Z,4.17
2018-07-17T09:34:25.995Z,5.13
2018-07-17T09:39:28.160Z,4.37
2018-07-17T09:44:30.362Z,4.40
2018-07-17T09:49:32.465Z,4.70
2018-07-17T09:54:34.616Z,4.93
2018-07-17T09:59:36.783Z,4.10
2018-07-17T10:04:38.999Z,3.80
2018-07-17T10:09:41.107Z,4.47
2018-07-17T10:14:43.235Z,5.70
2018-07-17T10:19:45.401Z,4.83
2018-07-17T10:24:47.525Z,3.73
2018-07-17T10:29:49.683Z,3.93
2018-07-17T10:34:51.895Z,4.53
2018-07-17T10:39:54.050Z,7.13
2018-07-17T10:44:56.220Z,3.97
2018-07-17T10:49:58.367Z,8.53
2018-07-17T10:55:00.593Z,3.97
2018-07-17T11:00:02.818Z,7.70
2018-07-17T11:05:04.994Z,3.60
2018-07-17T11:10:07.160Z,10.53
2018-07-17T11:15:09.310Z,3.30
2018-07-17T11:20:11.460Z,5.20
2018-07-17T11:25:13.545Z,5.17
2018-07-17T11:30:15.703Z,4.00
2018-07-17T11:35:17.874Z,5.57
2018-07-17T11:40:20.071Z,4.20
2018-07-17T11:45:22.259Z,4.10
2018-07-17T11:50:24.428Z,3.80
2018-07-17T11:55:26.609Z,5.33
2018-07-17T12:00:28.764Z,5.30
2018-07-17T12:05:30.980Z,5.00
2018-07-17T12:10:33.089Z,6.47
2018-07-17T12:15:35.261Z,4.10
2018-07-17T12:20:37.570Z,4.33
2018-07-17T12:25:39.597Z,4.97
2018-07-17T12:30:41.909Z,4.50
2018-07-17T12:35:44.075Z,7.20
2018-07-17T12:40:46.335Z,5.03
2018-07-17T12:45:48.498Z,4.37
2018-07-17T12:50:50.701Z,4.03
2018-07-17T12:55:52.929Z,3.90
2018-07-17T13:00:55.102Z,4.73
2018-07-17T13:05:57.244Z,4.80
2018-07-17T13:10:59.415Z,7.03
2018-07-17T13:16:01.573Z,4.10
2018-07-17T13:21:03.723Z,9.83
2018-07-17T13:26:06.192Z,6.43
2018-07-17T13:31:08.350Z,5.00
2018-07-17T13:36:10.552Z,7.20
2018-07-17T13:41:12.724Z,10.40
2018-07-17T13:46:14.874Z,6.77
2018-07-17T13:51:17.051Z,4.87
2018-07-17T13:56:19.337Z,4.27
2018-07-17T14:01:21.491Z,6.10
2018-07-17T14:06:23.690Z,5.20
2018-07-17T14:11:25.868Z,3.87
2018-07-17T14:16:28.021Z,5.93
2018-07-17T14:21:30.336Z,4.43
2018-07-17T14:26:32.496Z,3.70
2018-07-17T14:31:34.655Z,4.03
2018-07-17T14:36:36.844Z,8.67
2018-07-17T14:41:39.196Z,3.37
2018-07-17T14:46:41.287Z,8.20
2018-07-17T14:51:43.435Z,4.00
2018-07-17T14:56:45.722Z,4.70
2018-07-17T15:01:47.932Z,7.20
2018-07-17T15:06:50.097Z,4.17
2018-07-17T15:11:52.229Z,4.10
2018-07-17T15:16:54.372Z,5.00
2018-07-17T15:21:56.615Z,5.90
2018-07-17T15:26:58.765Z,5.77
2018-07-17T15:32:00.932Z,4.30
2018-07-17T15:37:03.203Z,4.50
2018-07-17T15:42:05.694Z,8.10
2018-07-17T15:47:07.865Z,4.07
2018-07-17T15:52:10.134Z,3.70
2018-07-17T15:57:12.404Z,4.00
2018-07-17T16:02:14.644Z,4.00
2018-07-17T16:07:16.831Z,3.40
2018-07-17T16:12:19.029Z,3.43
2018-07-17T16:17:21.250Z,3.23
2018-07-17T16:22:23.451Z,3.37
2018-07-17T16:27:25.667Z,4.87
2018-07-17T16:32:27.922Z,3.30
2018-07-17T16:37:30.137Z,3.27
2018-07-17T16:42:32.330Z,3.30
2018-07-17T16:47:34.511Z,3.90
2018-07-17T16:52:36.830Z,5.13
2018-07-17T16:57:39.080Z,3.23
2018-07-17T17:02:41.259Z,3.40
2018-07-17T17:07:43.444Z,3.17
2018-07-17T17:12:45.628Z,5.50
2018-07-17T17:17:47.802Z,3.30
2018-07-17T17:22:49.980Z,3.47
2018-07-17T17:27:52.141Z,3.73
2018-07-17T17:32:54.458Z,3.90
2018-07-17T17:37:56.640Z,3.63
2018-07-17T17:42:58.837Z,4.20
2018-07-17T17:48:01.110Z,3.50
2018-07-17T17:53:03.369Z,3.60
2018-07-17T17:58:05.995Z,3.57
2018-07-17T18:03:09.019Z,3.50
2018-07-17T18:08:11.224Z,3.87
2018-07-17T18:13:13.457Z,3.63
2018-07-17T18:18:15.683Z,7.90
2018-07-17T18:23:17.977Z,5.53
2018-07-17T18:28:20.239Z,3.77
2018-07-17T18:33:22.545Z,5.50
2018-07-17T18:38:24.726Z,3.60
2018-07-17T18:43:26.998Z,4.10
2018-07-17T18:48:29.287Z,3.77
2018-07-17T18:53:32.285Z,3.80
2018-07-17T18:58:34.650Z,3.47
2018-07-17T19:03:37.249Z,5.73
2018-07-17T19:08:39.526Z,11.43
2018-07-17T19:13:41.811Z,3.97
2018-07-17T19:18:44.027Z,3.73
2018-07-17T19:23:46.341Z,3.33
2018-07-17T19:28:48.569Z,3.33
2018-07-17T19:33:50.922Z,3.57
2018-07-17T19:38:53.240Z,7.23
2018-07-17T19:43:55.498Z,7.37
2018-07-17T19:48:57.764Z,8.57
2018-07-17T19:54:00.230Z,5.50
2018-07-17T19:59:02.539Z,5.57
2018-07-17T20:04:05.166Z,4.60
2018-07-17T20:09:08.061Z,3.83
2018-07-17T20:14:10.394Z,4.20
2018-07-17T20:19:12.631Z,10.80
2018-07-17T20:24:14.920Z,5.90
2018-07-17T20:29:17.187Z,6.53
2018-07-17T20:34:19.474Z,15.43
2018-07-17T20:39:21.830Z,12.80
2018-07-17T20:44:24.106Z,9.63
2018-07-17T20:49:26.350Z,11.23
2018-07-17T20:54:28.637Z,20.63
2018-07-17T20:59:30.912Z,19.20
2018-07-17T21:04:33.142Z,16.30
2018-07-17T21:09:35.379Z,16.73
2018-07-17T21:14:37.565Z,12.70
2018-07-17T21:19:39.823Z,29.00
2018-07-17T21:24:42.065Z,13.90
2018-07-17T21:29:44.282Z,17.77
2018-07-17T21:34:47.159Z,19.30
2018-07-17T21:39:49.471Z,22.30
2018-07-17T21:44:51.744Z,14.57
2018-07-17T21:49:53.987Z,16.20
2018-07-17T21:54:56.180Z,20.60
2018-07-17T21:59:58.406Z,12.33
2018-07-17T22:05:00.541Z,13.43
2018-07-17T22:10:02.758Z,12.37
2018-07-17T22:15:04.984Z,12.33
2018-07-17T22:20:08.036Z,14.10
2018-07-17T22:25:10.260Z,22.30
2018-07-17T22:30:12.465Z,15.10
2018-07-17T22:35:14.668Z,14.83
2018-07-17T22:40:16.822Z,13.50
2018-07-17T22:45:19.003Z,20.00
2018-07-17T22:50:21.162Z,14.60
2018-07-17T22:55:23.462Z,13.87
2018-07-17T23:00:25.705Z,10.93
2018-07-17T23:05:27.892Z,16.27
2018-07-17T23:10:30.078Z,19.17
2018-07-17T23:15:32.214Z,14.93
2018-07-17T23:20:34.363Z,19.87
2018-07-17T23:25:36.528Z,20.47
2018-07-17T23:30:38.708Z,19.73
2018-07-17T23:35:40.885Z,26.27
2018-07-17T23:40:43.027Z,19.77
2018-07-17T23:45:45.191Z,15.53
2018-07-17T23:50:47.329Z,16.73
2018-07-17T23:55:49.454Z,21.80
